createdAt,value
2023-02-28T00:03:08.592Z,2.83
2023-02-28T00:05:35.937Z,3.22
2023-02-28T00:08:03.145Z,3.88
2023-02-28T00:10:32.444Z,2.90
2023-02-28T00:13:07.702Z,3.17
2023-02-28T00:15:35.516Z,3.22
2023-02-28T00:18:04.193Z,3.40
2023-02-28T00:20:31.542Z,4.07
2023-02-28T00:22:59.061Z,2.47
2023-02-28T00:25:27.146Z,2.78
2023-02-28T00:27:54.390Z,2.67
2023-02-28T00:30:23.960Z,2.55
2023-02-28T00:32:52.122Z,3.22
2023-02-28T00:35:21.260Z,2.40
2023-02-28T00:37:49.718Z,2.58
2023-02-28T00:40:17.122Z,2.30
2023-02-28T00:42:44.436Z,2.33
2023-02-28T00:45:11.770Z,2.42
2023-02-28T00:47:39.478Z,2.53
2023-02-28T00:50:07.520Z,2.80
2023-02-28T00:52:34.667Z,2.28
2023-02-28T00:55:01.835Z,2.42
2023-02-28T00:57:29.022Z,2.05
2023-02-28T00:59:56.275Z,1.98
2023-02-28T01:02:24.528Z,3.15
2023-02-28T01:04:53.829Z,2.38
2023-02-28T01:07:20.911Z,2.13
2023-02-28T01:09:48.058Z,1.95
2023-02-28T01:12:15.470Z,3.00
2023-02-28T01:14:43.019Z,2.03
2023-02-28T01:17:10.486Z,2.08
2023-02-28T01:19:37.730Z,1.85
2023-02-28T01:22:06.691Z,1.90
2023-02-28T01:24:35.628Z,1.70
2023-02-28T01:27:02.781Z,1.80
2023-02-28T01:29:29.866Z,1.65
2023-02-28T01:31:58.227Z,1.88
2023-02-28T01:34:25.409Z,1.60
2023-02-28T01:36:52.619Z,1.80
2023-02-28T01:39:19.958Z,1.80
2023-02-28T01:41:47.286Z,1.83
2023-02-28T01:44:52.137Z,1.30
2023-02-28T01:47:19.508Z,1.73
2023-02-28T01:49:46.889Z,1.67
2023-02-28T01:52:19.029Z,1.98
2023-02-28T01:54:52.036Z,1.77
2023-02-28T02:00:05.332Z,1.13
2023-02-28T02:02:42.766Z,1.50
2023-02-28T02:05:29.516Z,1.42
2023-02-28T02:07:59.332Z,1.30
2023-02-28T02:10:30.621Z,1.25
2023-02-28T02:13:03.534Z,1.40
2023-02-28T02:15:50.622Z,1.48
2023-02-28T02:18:23.922Z,1.73
2023-02-28T02:21:00.280Z,1.88
2023-02-28T02:23:27.829Z,2.15
2023-02-28T02:26:25.867Z,1.33
2023-02-28T02:28:53.616Z,1.38
2023-02-28T02:31:43.350Z,1.63
2023-02-28T02:34:28.624Z,1.70
2023-02-28T02:37:33.192Z,2.05
2023-02-28T02:40:15.912Z,1.83
2023-02-28T02:42:47.011Z,2.00
2023-02-28T02:45:20.603Z,1.73
2023-02-28T02:47:49.161Z,1.80
2023-02-28T02:50:24.979Z,2.25
2023-02-28T02:52:56.897Z,2.17
2023-02-28T02:55:25.807Z,2.33
2023-02-28T02:58:04.443Z,2.00
2023-02-28T03:00:36.914Z,2.00
2023-02-28T03:03:05.146Z,1.83
2023-02-28T03:05:50.922Z,1.88
2023-02-28T03:08:18.775Z,1.85
2023-02-28T03:10:50.511Z,1.80
2023-02-28T03:13:55.261Z,2.13
2023-02-28T03:16:54.140Z,3.00
2023-02-28T03:19:48.222Z,2.55
2023-02-28T03:22:20.964Z,2.65
2023-02-28T03:25:10.071Z,2.17
2023-02-28T03:27:50.645Z,2.85
2023-02-28T03:30:25.692Z,2.92
2023-02-28T03:33:08.635Z,2.53
2023-02-28T03:35:44.581Z,2.50
2023-02-28T03:38:33.007Z,2.25
2023-02-28T03:41:11.350Z,2.33
2023-02-28T03:43:44.114Z,1.95
2023-02-28T03:46:17.117Z,2.20
2023-02-28T03:48:56.982Z,2.00
2023-02-28T03:51:28.209Z,1.80
2023-02-28T03:54:00.986Z,2.20
2023-02-28T03:56:38.665Z,1.83
2023-02-28T03:59:14.209Z,1.80
2023-02-28T04:01:46.958Z,2.00
2023-02-28T04:04:15.869Z,2.10
2023-02-28T04:06:43.873Z,3.25
2023-02-28T04:11:43.050Z,2.28
2023-02-28T04:14:11.304Z,2.08
2023-02-28T04:16:41.156Z,2.10
2023-02-28T04:19:10.400Z,2.17
2023-02-28T04:21:43.664Z,1.80
2023-02-28T04:24:15.869Z,2.05
2023-02-28T04:26:48.021Z,2.20
2023-02-28T04:31:42.930Z,1.77
2023-02-28T04:34:10.179Z,2.10
2023-02-28T04:36:37.300Z,1.70
2023-02-28T04:39:05.100Z,2.05
2023-02-28T04:41:32.931Z,2.22
2023-02-28T04:44:00.301Z,2.15
2023-02-28T04:46:27.462Z,2.58
2023-02-28T04:48:55.564Z,2.70
2023-02-28T04:51:23.128Z,1.80
2023-02-28T04:53:50.334Z,1.42
2023-02-28T04:56:18.773Z,2.88
2023-02-28T04:58:46.305Z,2.70
2023-02-28T05:01:32.169Z,3.35
2023-02-28T05:04:02.468Z,2.35
2023-02-28T05:06:31.805Z,2.20
2023-02-28T05:08:59.290Z,2.67
2023-02-28T05:11:36.300Z,2.45
2023-02-28T05:14:11.082Z,3.05
2023-02-28T05:16:38.293Z,2.88
2023-02-28T05:19:05.676Z,2.65
2023-02-28T05:21:35.976Z,2.70
2023-02-28T05:24:06.177Z,3.25
2023-02-28T05:26:44.131Z,3.53
2023-02-28T05:29:11.781Z,4.07
2023-02-28T05:31:39.204Z,4.18
2023-02-28T05:34:06.804Z,2.75
2023-02-28T05:36:34.559Z,3.00
2023-02-28T05:39:01.708Z,2.95
2023-02-28T05:41:29.390Z,3.03
2023-02-28T05:43:56.610Z,3.38
2023-02-28T05:46:23.742Z,3.70
2023-02-28T05:48:51.901Z,3.65
2023-02-28T05:51:19.327Z,3.58
2023-02-28T05:53:46.504Z,4.00
2023-02-28T05:56:13.681Z,4.00
2023-02-28T05:58:40.846Z,3.75
2023-02-28T06:01:41.931Z,3.78
2023-02-28T06:04:22.305Z,4.70
2023-02-28T06:06:58.562Z,5.15
2023-02-28T06:09:26.165Z,5.20
2023-02-28T06:11:53.358Z,5.70
2023-02-28T06:14:21.396Z,5.18
2023-02-28T06:16:48.774Z,4.45
2023-02-28T06:19:16.579Z,5.75
2023-02-28T06:21:44.331Z,6.97
2023-02-28T06:24:12.152Z,5.53
2023-02-28T06:26:39.313Z,6.05
2023-02-28T06:29:10.394Z,4.90
2023-02-28T06:31:37.780Z,5.93
2023-02-28T06:34:05.594Z,5.63
2023-02-28T06:36:32.767Z,5.28
2023-02-28T06:39:00.105Z,6.00
2023-02-28T06:41:28.684Z,5.63
2023-02-28T06:43:56.479Z,6.03
2023-02-28T06:46:24.070Z,6.85
2023-02-28T06:48:51.377Z,6.07
2023-02-28T06:51:25.408Z,6.35
2023-02-28T06:53:52.718Z,5.88
2023-02-28T06:56:23.929Z,5.68
2023-02-28T06:58:51.791Z,6.17
2023-02-28T07:01:20.428Z,5.70
2023-02-28T07:03:53.240Z,6.50
2023-02-28T07:06:23.629Z,6.85
2023-02-28T07:08:52.029Z,6.00
2023-02-28T07:11:19.769Z,4.82
2023-02-28T07:13:48.672Z,5.25
2023-02-28T07:16:16.014Z,5.47
2023-02-28T07:18:43.539Z,5.57
2023-02-28T07:21:11.606Z,4.63
2023-02-28T07:23:40.032Z,4.35
2023-02-28T07:26:08.202Z,4.07
2023-02-28T07:28:35.374Z,4.88
2023-02-28T07:31:09.260Z,5.22
2023-02-28T07:33:36.974Z,5.82
2023-02-28T07:36:06.860Z,5.65
2023-02-28T07:38:38.439Z,6.68
2023-02-28T07:41:05.857Z,5.78
2023-02-28T07:43:33.924Z,7.05
2023-02-28T07:46:09.794Z,6.72
2023-02-28T07:48:37.108Z,6.13
2023-02-28T07:51:04.525Z,7.05
2023-02-28T07:53:32.217Z,7.07
2023-02-28T07:56:01.947Z,6.25
2023-02-28T07:58:31.335Z,5.80
2023-02-28T08:01:05.609Z,5.28
2023-02-28T08:03:32.945Z,5.57
2023-02-28T08:06:00.360Z,5.78
2023-02-28T08:08:32.303Z,6.03
2023-02-28T08:11:04.563Z,4.88
2023-02-28T08:13:32.119Z,5.45
2023-02-28T08:15:59.466Z,5.57
2023-02-28T08:18:26.830Z,5.25
2023-02-28T08:20:54.072Z,6.20
2023-02-28T08:23:31.341Z,5.57
2023-02-28T08:25:58.770Z,5.65
2023-02-28T08:28:27.384Z,6.32
2023-02-28T08:30:56.317Z,5.32
2023-02-28T08:33:24.831Z,5.88
2023-02-28T08:35:58.179Z,5.05
2023-02-28T08:38:25.658Z,4.97
2023-02-28T08:41:03.601Z,4.22
2023-02-28T08:43:31.298Z,4.60
2023-02-28T08:45:58.626Z,3.40
2023-02-28T08:48:30.904Z,3.72
2023-02-28T08:53:37.685Z,3.28
2023-02-28T08:56:11.530Z,3.33
2023-02-28T08:58:41.030Z,4.05
2023-02-28T09:01:13.318Z,3.38
2023-02-28T09:03:42.891Z,3.53
2023-02-28T09:06:14.970Z,2.80
2023-02-28T09:08:45.679Z,3.22
2023-02-28T09:11:16.890Z,2.70
2023-02-28T09:13:44.347Z,2.88
2023-02-28T09:16:13.793Z,2.80
2023-02-28T09:18:41.661Z,2.30
2023-02-28T09:21:14.662Z,2.35
2023-02-28T09:23:51.313Z,2.38
2023-02-28T09:26:20.777Z,2.03
2023-02-28T09:28:48.543Z,2.13
2023-02-28T09:31:22.497Z,2.00
2023-02-28T09:33:55.597Z,1.80
2023-02-28T09:36:28.918Z,1.67
2023-02-28T09:39:02.057Z,2.30
2023-02-28T09:41:41.197Z,2.30
2023-02-28T09:44:15.012Z,2.47
2023-02-28T09:46:48.332Z,2.63
2023-02-28T09:49:19.865Z,2.45
2023-02-28T09:51:54.257Z,3.17
2023-02-28T09:54:24.691Z,2.25
2023-02-28T09:57:00.331Z,2.35
2023-02-28T09:59:45.752Z,2.47
2023-02-28T10:02:22.649Z,2.40
2023-02-28T10:05:18.924Z,2.83
2023-02-28T10:08:03.121Z,2.85
2023-02-28T10:10:39.667Z,2.50
2023-02-28T10:13:13.876Z,2.65
2023-02-28T10:15:42.825Z,3.00
2023-02-28T10:18:15.701Z,2.80
2023-02-28T10:20:43.819Z,2.20
2023-02-28T10:23:36.698Z,2.40
2023-02-28T10:26:17.677Z,1.98
2023-02-28T10:28:45.252Z,2.72
2023-02-28T10:31:18.489Z,2.40
2023-02-28T10:33:46.942Z,2.63
2023-02-28T10:36:20.135Z,2.42
2023-02-28T10:38:48.768Z,2.60
2023-02-28T10:41:30.389Z,2.97
2023-02-28T10:44:21.421Z,2.70
2023-02-28T10:46:51.676Z,3.38
2023-02-28T10:49:23.941Z,2.72
2023-02-28T10:51:55.996Z,2.20
2023-02-28T10:54:30.500Z,2.33
2023-02-28T10:57:27.751Z,2.25
2023-02-28T11:00:18.198Z,2.55
2023-02-28T11:02:47.511Z,3.78
2023-02-28T11:05:28.728Z,3.70
2023-02-28T11:08:12.335Z,2.60
2023-02-28T11:10:39.880Z,2.28
2023-02-28T11:13:07.930Z,2.03
2023-02-28T11:15:36.515Z,1.38
2023-02-28T11:18:31.841Z,1.20
2023-02-28T11:21:02.173Z,1.27
2023-02-28T11:23:33.210Z,1.60
2023-02-28T11:26:03.575Z,3.45
2023-02-28T11:28:36.759Z,3.00
2023-02-28T11:31:12.487Z,3.00
2023-02-28T11:33:46.125Z,2.60
2023-02-28T11:36:18.924Z,2.47
2023-02-28T11:38:48.459Z,3.15
2023-02-28T11:41:18.677Z,2.40
2023-02-28T11:44:12.139Z,2.88
2023-02-28T11:46:50.312Z,1.92
2023-02-28T11:49:32.392Z,1.85
2023-02-28T11:52:27.604Z,2.30
2023-02-28T11:55:02.914Z,1.85
2023-02-28T11:57:56.015Z,2.78
2023-02-28T12:00:54.432Z,2.17
2023-02-28T12:03:56.395Z,2.67
2023-02-28T12:06:52.186Z,2.47
2023-02-28T12:09:56.461Z,2.67
2023-02-28T12:12:49.841Z,2.55
2023-02-28T12:15:43.352Z,2.17
2023-02-28T12:18:48.046Z,3.20
2023-02-28T12:21:44.598Z,3.67
2023-02-28T12:24:33.609Z,3.85
2023-02-28T12:27:06.835Z,4.10
2023-02-28T12:29:43.614Z,3.00
2023-02-28T12:32:26.963Z,2.83
2023-02-28T12:35:00.893Z,2.88
2023-02-28T12:37:41.103Z,2.42
2023-02-28T12:40:23.945Z,2.63
2023-02-28T12:42:55.196Z,1.60
2023-02-28T12:45:26.918Z,2.22
2023-02-28T12:48:01.178Z,1.85
2023-02-28T12:50:31.084Z,1.77
2023-02-28T12:53:15.106Z,2.17
2023-02-28T12:56:14.751Z,1.90
2023-02-28T12:58:54.679Z,2.47
2023-02-28T13:01:37.721Z,2.08
2023-02-28T13:04:41.995Z,2.28
2023-02-28T13:07:40.071Z,2.30
2023-02-28T13:10:08.773Z,1.90
2023-02-28T13:12:36.987Z,2.55
2023-02-28T13:15:30.880Z,1.95
2023-02-28T13:18:00.201Z,2.40
2023-02-28T13:20:36.121Z,2.42
2023-02-28T13:23:03.803Z,3.20
2023-02-28T13:25:43.417Z,1.83
2023-02-28T13:28:12.820Z,1.70
2023-02-28T13:30:59.792Z,2.10
2023-02-28T13:33:32.500Z,2.25
2023-02-28T13:36:15.353Z,2.47
2023-02-28T13:38:44.324Z,1.98
2023-02-28T13:41:44.929Z,1.80
2023-02-28T13:44:27.411Z,1.73
2023-02-28T13:49:22.011Z,1.90
2023-02-28T13:51:50.822Z,1.38
2023-02-28T13:55:09.826Z,1.67
2023-02-28T13:58:06.209Z,1.77
2023-02-28T14:00:59.568Z,1.98
2023-02-28T14:03:48.290Z,1.50
2023-02-28T14:06:28.897Z,1.80
2023-02-28T14:09:14.813Z,2.05
2023-02-28T14:11:43.981Z,1.90
2023-02-28T14:14:36.934Z,2.63
2023-02-28T14:17:29.453Z,1.75
2023-02-28T14:19:59.307Z,1.58
2023-02-28T14:22:45.692Z,1.60
2023-02-28T14:25:53.613Z,1.70
2023-02-28T14:28:34.429Z,1.30
2023-02-28T14:31:13.632Z,1.45
2023-02-28T14:33:56.673Z,1.38
2023-02-28T14:36:35.885Z,1.63
2023-02-28T14:39:08.098Z,1.40
2023-02-28T14:44:18.588Z,1.27
2023-02-28T14:46:47.842Z,1.20
2023-02-28T14:49:21.833Z,1.38
2023-02-28T14:52:04.515Z,1.50
2023-02-28T14:54:32.228Z,1.08
2023-02-28T14:56:59.427Z,0.98
2023-02-28T14:59:35.458Z,1.08
2023-02-28T15:02:17.703Z,1.02
2023-02-28T15:04:53.174Z,0.90
2023-02-28T15:07:20.497Z,1.10
2023-02-28T15:09:47.700Z,1.15
2023-02-28T15:12:16.281Z,1.25
2023-02-28T15:14:45.429Z,1.15
2023-02-28T15:17:23.375Z,1.08
2023-02-28T15:19:54.104Z,0.98
2023-02-28T15:22:37.041Z,1.15
2023-02-28T15:25:11.754Z,1.00
2023-02-28T15:27:46.646Z,1.55
2023-02-28T15:30:34.574Z,1.05
2023-02-28T15:33:26.752Z,1.00
2023-02-28T15:36:18.641Z,1.05
2023-02-28T15:38:51.068Z,1.70
2023-02-28T15:41:31.600Z,1.52
2023-02-28T15:44:19.265Z,1.30
2023-02-28T15:47:13.302Z,1.60
2023-02-28T15:49:51.102Z,1.13
2023-02-28T15:52:33.214Z,0.80
2023-02-28T15:55:08.431Z,0.93
2023-02-28T15:57:36.387Z,0.85
2023-02-28T16:00:12.408Z,0.80
2023-02-28T16:02:42.517Z,0.90
2023-02-28T16:05:09.825Z,1.20
2023-02-28T16:07:40.640Z,0.90
2023-02-28T16:10:11.534Z,1.00
2023-02-28T16:12:41.027Z,1.13
2023-02-28T16:15:30.467Z,1.10
2023-02-28T16:17:58.635Z,1.05
2023-02-28T16:20:28.794Z,2.00
2023-02-28T16:23:31.911Z,4.35
2023-02-28T16:26:25.568Z,1.40
2023-02-28T16:28:55.863Z,1.73
2023-02-28T16:31:23.099Z,1.15
2023-02-28T16:33:50.638Z,1.77
2023-02-28T16:36:28.871Z,5.05
2023-02-28T16:38:56.175Z,1.30
2023-02-28T16:41:27.022Z,1.42
2023-02-28T16:44:01.245Z,2.22
2023-02-28T16:46:35.312Z,2.75
2023-02-28T16:49:03.118Z,1.30
2023-02-28T16:51:32.294Z,0.82
2023-02-28T16:54:00.995Z,1.17
2023-02-28T16:56:28.393Z,1.20
2023-02-28T16:59:00.336Z,0.90
2023-02-28T17:01:28.942Z,0.95
2023-02-28T17:03:56.995Z,1.13
2023-02-28T17:06:29.746Z,1.00
2023-02-28T17:08:58.667Z,1.17
2023-02-28T17:11:27.934Z,1.25
2023-02-28T17:13:55.432Z,1.27
2023-02-28T17:16:46.726Z,1.20
2023-02-28T17:19:18.852Z,1.17
2023-02-28T17:21:46.124Z,1.00
2023-02-28T17:24:16.615Z,1.05
2023-02-28T17:26:46.848Z,1.00
2023-02-28T17:29:18.792Z,2.33
2023-02-28T17:31:46.393Z,2.67
2023-02-28T17:34:19.262Z,2.10
2023-02-28T17:36:48.819Z,1.60
2023-02-28T17:39:25.678Z,1.63
2023-02-28T17:41:53.924Z,1.35
2023-02-28T17:44:22.438Z,1.40
2023-02-28T17:46:54.414Z,1.80
2023-02-28T17:49:24.531Z,1.30
2023-02-28T17:51:51.681Z,1.80
2023-02-28T17:54:19.279Z,1.30
2023-02-28T17:56:47.092Z,1.17
2023-02-28T17:59:14.538Z,1.30
2023-02-28T18:01:41.729Z,1.15
2023-02-28T18:04:08.933Z,1.30
2023-02-28T18:06:51.299Z,1.08
2023-02-28T18:09:23.137Z,1.60
2023-02-28T18:11:56.098Z,1.40
2023-02-28T18:14:26.348Z,1.42
2023-02-28T18:16:58.370Z,1.42
2023-02-28T18:19:25.505Z,1.50
2023-02-28T18:21:54.050Z,4.57
2023-02-28T18:24:23.125Z,1.33
2023-02-28T18:26:51.519Z,2.47
2023-02-28T18:29:31.860Z,1.50
2023-02-28T18:31:59.763Z,21.38
2023-02-28T18:34:28.392Z,2.45
2023-02-28T18:36:57.444Z,1.23
2023-02-28T18:39:39.861Z,1.80
2023-02-28T18:42:07.500Z,1.55
2023-02-28T18:44:41.537Z,2.38
2023-02-28T18:47:09.681Z,20.30
2023-02-28T18:49:38.528Z,2.22
2023-02-28T18:52:05.770Z,4.85
2023-02-28T18:54:33.498Z,1.77
2023-02-28T18:57:01.256Z,1.48
2023-02-28T18:59:28.702Z,1.25
2023-02-28T19:01:56.400Z,1.58
2023-02-28T19:04:23.663Z,1.40
2023-02-28T19:06:50.900Z,1.70
2023-02-28T19:09:18.037Z,1.42
2023-02-28T19:11:45.129Z,1.40
2023-02-28T19:14:12.253Z,2.17
2023-02-28T19:16:40.100Z,1.17
2023-02-28T19:19:07.299Z,1.83
2023-02-28T19:21:36.832Z,1.80
2023-02-28T19:24:04.770Z,2.20
2023-02-28T19:26:32.449Z,1.90
2023-02-28T19:29:03.747Z,1.90
2023-02-28T19:31:31.190Z,1.50
2023-02-28T19:33:59.200Z,1.60
2023-02-28T19:36:27.027Z,1.70
2023-02-28T19:38:54.884Z,1.70
2023-02-28T19:41:22.419Z,1.80
2023-02-28T19:43:51.247Z,1.63
2023-02-28T19:46:18.999Z,1.27
2023-02-28T19:48:46.458Z,2.05
2023-02-28T19:51:14.980Z,1.58
2023-02-28T19:53:43.025Z,1.45
2023-02-28T19:56:10.352Z,1.60
2023-02-28T19:58:38.028Z,2.17
2023-02-28T20:01:18.319Z,3.13
2023-02-28T20:03:51.391Z,2.53
2023-02-28T20:06:19.367Z,1.67
2023-02-28T20:08:46.727Z,1.65
2023-02-28T20:21:32.244Z,2.03
2023-02-28T20:23:59.792Z,2.50
2023-02-28T20:26:27.114Z,2.17
2023-02-28T20:28:55.245Z,2.03
2023-02-28T20:31:25.872Z,2.60
2023-02-28T20:33:53.405Z,2.58
2023-02-28T20:36:21.404Z,2.58
2023-02-28T20:38:49.613Z,2.65
2023-02-28T20:41:20.903Z,2.85
2023-02-28T20:43:48.866Z,3.30
2023-02-28T20:46:16.271Z,3.78
2023-02-28T20:48:43.550Z,4.30
2023-02-28T20:51:11.545Z,4.15
2023-02-28T20:53:38.796Z,5.13
2023-02-28T20:56:09.178Z,6.13
2023-02-28T20:58:38.046Z,6.30
2023-02-28T21:01:16.277Z,5.95
2023-02-28T21:03:47.970Z,7.07
2023-02-28T21:06:22.119Z,6.43
2023-02-28T21:08:49.874Z,6.57
2023-02-28T21:11:30.718Z,7.13
2023-02-28T21:14:03.620Z,6.72
2023-02-28T21:16:31.245Z,8.50
2023-02-28T21:19:07.909Z,7.00
2023-02-28T21:21:38.646Z,8.50
2023-02-28T21:24:06.546Z,7.78
2023-02-28T21:26:34.069Z,7.25
2023-02-28T21:29:03.253Z,8.15
2023-02-28T21:31:33.035Z,8.45
2023-02-28T21:34:02.492Z,8.90
2023-02-28T21:36:35.306Z,7.78
2023-02-28T21:39:30.175Z,7.38
2023-02-28T21:42:03.473Z,7.88
2023-02-28T21:44:32.233Z,6.60
2023-02-28T21:47:02.471Z,6.72
2023-02-28T21:49:30.058Z,8.75
2023-02-28T21:51:57.821Z,7.47
2023-02-28T21:54:25.061Z,7.32
2023-02-28T21:56:52.579Z,7.10
2023-02-28T21:59:20.262Z,7.68
2023-02-28T22:01:51.542Z,7.78
2023-02-28T22:04:22.479Z,8.57
2023-02-28T22:06:55.331Z,8.10
2023-02-28T22:09:22.791Z,8.80
2023-02-28T22:11:50.568Z,8.68
2023-02-28T22:14:18.365Z,7.80
2023-02-28T22:16:51.930Z,8.85
2023-02-28T22:19:22.729Z,8.27
2023-02-28T22:21:50.483Z,7.68
2023-02-28T22:24:20.672Z,9.05
2023-02-28T22:26:49.571Z,8.00
2023-02-28T22:29:16.941Z,7.72
2023-02-28T22:31:44.319Z,7.88
2023-02-28T22:34:13.079Z,8.60
2023-02-28T22:36:43.922Z,7.30
2023-02-28T22:39:11.594Z,5.50
2023-02-28T22:41:39.166Z,4.30
2023-02-28T22:44:07.392Z,3.72
2023-02-28T22:46:35.705Z,3.28
2023-02-28T22:49:04.661Z,3.47
2023-02-28T22:51:32.060Z,4.05
2023-02-28T22:53:59.534Z,3.97
2023-02-28T22:56:29.748Z,3.50
2023-02-28T22:58:59.181Z,3.75
2023-02-28T23:01:29.481Z,4.47
2023-02-28T23:03:57.715Z,4.32
2023-02-28T23:06:43.293Z,3.38
2023-02-28T23:09:21.964Z,4.03
2023-02-28T23:11:51.162Z,4.63
2023-02-28T23:14:19.966Z,3.97
2023-02-28T23:16:56.481Z,4.07
2023-02-28T23:19:27.301Z,4.78
2023-02-28T23:21:54.848Z,4.93
2023-02-28T23:24:26.769Z,5.38
2023-02-28T23:26:56.797Z,4.70
2023-02-28T23:29:25.186Z,5.07
2023-02-28T23:31:52.738Z,4.80
2023-02-28T23:34:28.059Z,5.03
2023-02-28T23:36:56.897Z,5.35
2023-02-28T23:39:25.050Z,5.57
2023-02-28T23:41:52.955Z,6.25
2023-02-28T23:44:20.071Z,5.15
2023-02-28T23:46:49.943Z,6.47
2023-02-28T23:49:21.402Z,5.65
2023-02-28T23:51:49.765Z,5.38
2023-02-28T23:54:18.200Z,6.35
2023-02-28T23:56:45.565Z,5.85
2023-02-28T23:59:13.226Z,5.97
